createdAt,value
2023-02-12T00:01:22.431Z,19.67
2023-02-12T00:03:49.144Z,19.87
2023-02-12T00:06:16.251Z,19.03
2023-02-12T00:08:43.206Z,15.63
2023-02-12T00:11:16.325Z,20.57
2023-02-12T00:13:43.728Z,17.90
2023-02-12T00:16:17.869Z,16.33
2023-02-12T00:18:44.859Z,17.53
2023-02-12T00:21:13.236Z,18.13
2023-02-12T00:23:42.891Z,16.47
2023-02-12T00:26:19.110Z,18.77
2023-02-12T00:28:45.780Z,18.60
2023-02-12T00:31:20.142Z,16.20
2023-02-12T00:33:46.779Z,19.37
2023-02-12T00:36:23.665Z,20.13
2023-02-12T00:38:53.450Z,18.27
2023-02-12T00:41:21.732Z,18.13
2023-02-12T00:43:48.905Z,37.37
2023-02-12T00:46:16.057Z,40.77
2023-02-12T00:48:42.838Z,34.07
2023-02-12T00:51:09.410Z,23.20
2023-02-12T00:53:36.784Z,18.73
2023-02-12T00:56:03.896Z,26.83
2023-02-12T00:58:30.388Z,33.93
2023-02-12T01:00:56.848Z,36.97
2023-02-12T01:03:23.871Z,42.93
2023-02-12T01:05:51.219Z,40.40
2023-02-12T01:08:17.753Z,43.90
2023-02-12T01:10:44.722Z,51.43
2023-02-12T01:13:14.360Z,56.17
2023-02-12T01:15:41.993Z,44.23
2023-02-12T01:18:08.548Z,42.83
2023-02-12T01:20:35.054Z,41.80
2023-02-12T01:23:01.520Z,33.47
2023-02-12T01:25:28.051Z,38.67
2023-02-12T01:27:54.695Z,33.10
2023-02-12T01:30:23.403Z,35.90
2023-02-12T01:32:49.892Z,31.10
2023-02-12T01:35:16.530Z,33.43
2023-02-12T01:37:43.317Z,19.17
2023-02-12T01:40:14.108Z,22.90
2023-02-12T01:42:40.560Z,19.30
2023-02-12T01:46:28.807Z,29.83
2023-02-12T01:48:55.494Z,20.67
2023-02-12T01:51:23.722Z,15.27
2023-02-12T01:53:58.559Z,20.83
2023-02-12T01:56:25.402Z,22.03
2023-02-12T01:58:54.885Z,19.30
2023-02-12T02:01:31.689Z,24.77
2023-02-12T02:04:10.915Z,24.93
2023-02-12T02:08:34.288Z,25.20
2023-02-12T02:11:00.816Z,41.33
2023-02-12T02:13:45.876Z,39.40
2023-02-12T02:16:25.820Z,33.50
2023-02-12T02:22:06.730Z,22.17
2023-02-12T02:27:27.414Z,28.87
2023-02-12T02:30:33.891Z,27.70
2023-02-12T02:34:11.615Z,24.20
2023-02-12T02:37:00.732Z,28.50
2023-02-12T02:41:10.444Z,30.10
2023-02-12T02:43:47.726Z,37.03
2023-02-12T02:46:49.679Z,40.57
2023-02-12T02:49:32.206Z,28.97
2023-02-12T02:52:10.865Z,28.47
2023-02-12T02:54:48.019Z,25.73
2023-02-12T02:57:44.862Z,21.67
2023-02-12T03:01:55.758Z,24.73
2023-02-12T03:04:32.406Z,24.90
2023-02-12T03:07:19.676Z,27.47
2023-02-12T03:10:55.047Z,20.83
2023-02-12T03:13:36.909Z,33.97
2023-02-12T03:16:15.392Z,29.97
2023-02-12T03:18:56.595Z,31.60
2023-02-12T03:21:40.160Z,24.63
2023-02-12T03:24:38.231Z,30.03
2023-02-12T03:27:15.746Z,32.63
2023-02-12T03:29:42.291Z,30.93
2023-02-12T03:34:03.657Z,38.93
2023-02-12T03:37:36.365Z,28.33
2023-02-12T03:40:23.301Z,19.57
2023-02-12T03:43:29.134Z,20.87
2023-02-12T03:46:20.013Z,30.90
2023-02-12T03:49:21.196Z,25.27
2023-02-12T03:51:47.713Z,20.70
2023-02-12T03:54:19.337Z,18.13
2023-02-12T03:57:05.734Z,20.10
2023-02-12T03:59:35.807Z,21.40
2023-02-12T04:02:02.865Z,22.10
2023-02-12T04:04:31.048Z,23.77
2023-02-12T04:06:58.165Z,21.57
2023-02-12T04:09:27.174Z,21.20
2023-02-12T04:12:40.416Z,22.77
2023-02-12T04:15:31.477Z,21.10
2023-02-12T04:18:26.328Z,25.23
2023-02-12T04:21:17.902Z,31.87
2023-02-12T04:25:38.669Z,34.40
2023-02-12T04:29:52.907Z,37.27
2023-02-12T04:32:57.476Z,25.33
2023-02-12T04:35:38.328Z,27.77
2023-02-12T04:38:26.350Z,32.27
2023-02-12T04:40:53.280Z,27.63
2023-02-12T04:43:36.317Z,25.57
2023-02-12T04:46:06.472Z,40.33
2023-02-12T04:48:34.049Z,38.77
2023-02-12T04:51:01.410Z,27.17
2023-02-12T04:53:28.181Z,33.10
2023-02-12T04:55:54.949Z,28.90
2023-02-12T04:58:21.570Z,21.67
2023-02-12T05:00:48.030Z,26.77
2023-02-12T05:03:14.522Z,25.70
2023-02-12T05:05:40.994Z,29.70
2023-02-12T05:08:07.492Z,17.73
2023-02-12T05:10:33.973Z,23.77
2023-02-12T05:13:00.441Z,17.90
2023-02-12T05:15:27.040Z,22.17
2023-02-12T05:17:53.602Z,22.80
2023-02-12T05:20:20.158Z,24.47
2023-02-12T05:22:51.325Z,20.10
2023-02-12T05:25:17.781Z,24.20
2023-02-12T05:27:44.269Z,28.33
2023-02-12T05:30:11.532Z,22.53
2023-02-12T05:32:38.036Z,22.33
2023-02-12T05:35:05.304Z,34.57
2023-02-12T05:37:35.530Z,21.37
2023-02-12T05:40:05.669Z,22.77
2023-02-12T05:42:32.235Z,21.37
2023-02-12T05:44:58.724Z,27.60
2023-02-12T05:47:25.188Z,23.23
2023-02-12T05:49:51.797Z,27.10
2023-02-12T05:52:18.297Z,27.43
2023-02-12T05:54:44.763Z,31.70
2023-02-12T05:57:11.211Z,29.90
2023-02-12T05:59:37.688Z,24.80
2023-02-12T06:02:04.166Z,28.80
2023-02-12T06:04:30.652Z,21.90
2023-02-12T06:06:57.415Z,19.60
2023-02-12T06:09:24.253Z,21.93
2023-02-12T06:11:51.240Z,17.40
2023-02-12T06:14:19.862Z,14.97
2023-02-12T06:16:49.649Z,14.30
2023-02-12T06:19:16.974Z,18.23
2023-02-12T06:21:44.095Z,19.37
2023-02-12T06:24:15.616Z,18.07
2023-02-12T06:26:42.599Z,15.40
2023-02-12T06:29:09.101Z,18.27
2023-02-12T06:31:37.147Z,17.90
2023-02-12T06:34:08.749Z,17.47
2023-02-12T06:36:39.307Z,18.50
2023-02-12T06:39:06.621Z,15.97
2023-02-12T06:41:33.321Z,19.03
2023-02-12T06:43:59.992Z,22.37
2023-02-12T06:46:26.649Z,21.37
2023-02-12T06:48:55.962Z,23.37
2023-02-12T06:51:23.427Z,17.73
2023-02-12T06:53:52.851Z,20.50
2023-02-12T06:56:22.012Z,20.27
2023-02-12T06:58:56.247Z,18.30
2023-02-12T07:01:28.782Z,23.57
2023-02-12T07:03:59.336Z,25.47
2023-02-12T07:06:27.299Z,26.50
2023-02-12T07:08:55.076Z,32.00
2023-02-12T07:11:31.180Z,32.60
2023-02-12T07:13:58.237Z,19.40
2023-02-12T07:16:27.667Z,26.83
2023-02-12T07:18:54.631Z,20.70
2023-02-12T07:21:21.257Z,28.57
2023-02-12T07:23:51.527Z,26.27
2023-02-12T07:26:20.715Z,22.83
2023-02-12T07:28:47.840Z,32.53
2023-02-12T07:31:23.038Z,36.80
2023-02-12T07:33:54.624Z,32.67
2023-02-12T07:36:21.831Z,38.73
2023-02-12T07:38:48.477Z,43.50
2023-02-12T07:41:22.888Z,45.80
2023-02-12T07:43:55.456Z,41.20
2023-02-12T07:46:29.855Z,46.73
2023-02-12T07:48:58.741Z,34.17
2023-02-12T07:51:26.949Z,35.60
2023-02-12T07:53:54.043Z,32.20
2023-02-12T07:56:30.111Z,35.43
2023-02-12T07:58:58.194Z,40.00
2023-02-12T08:01:33.371Z,44.90
2023-02-12T08:04:22.460Z,42.17
2023-02-12T08:06:53.197Z,34.10
2023-02-12T08:09:24.855Z,35.40
2023-02-12T08:11:51.700Z,43.57
2023-02-12T08:14:21.057Z,30.37
2023-02-12T08:16:49.673Z,48.67
2023-02-12T08:19:21.683Z,39.60
2023-02-12T08:21:56.739Z,32.77
2023-02-12T08:24:24.588Z,30.90
2023-02-12T08:26:51.684Z,34.73
2023-02-12T08:29:26.007Z,44.80
2023-02-12T08:32:00.893Z,42.87
2023-02-12T08:34:31.824Z,42.80
2023-02-12T08:36:58.877Z,36.57
2023-02-12T08:39:28.410Z,36.40
2023-02-12T08:41:56.923Z,37.07
2023-02-12T08:44:24.376Z,36.37
2023-02-12T08:46:54.812Z,30.60
2023-02-12T08:49:25.630Z,27.63
2023-02-12T08:51:55.925Z,32.93
2023-02-12T08:54:25.988Z,26.60
2023-02-12T08:56:57.823Z,30.00
2023-02-12T08:59:24.302Z,28.57
2023-02-12T09:01:52.685Z,25.87
2023-02-12T09:04:22.995Z,26.93
2023-02-12T09:06:50.670Z,23.37
2023-02-12T09:09:18.844Z,19.97
2023-02-12T09:11:45.385Z,19.97
2023-02-12T09:14:15.472Z,17.13
2023-02-12T09:16:42.941Z,17.20
2023-02-12T09:19:13.087Z,22.00
2023-02-12T09:21:39.849Z,24.10
2023-02-12T09:24:06.542Z,17.23
2023-02-12T09:26:33.039Z,15.10
2023-02-12T09:29:03.450Z,16.27
2023-02-12T09:31:32.065Z,17.23
2023-02-12T09:34:05.548Z,13.80
2023-02-12T09:36:33.747Z,19.27
2023-02-12T09:39:00.283Z,15.70
2023-02-12T09:45:32.278Z,16.03
2023-02-12T09:50:59.754Z,15.13
2023-02-12T09:53:31.729Z,11.47
2023-02-12T09:55:59.249Z,13.13
2023-02-12T09:58:50.352Z,12.90
2023-02-12T10:01:22.215Z,12.03
2023-02-12T10:03:51.557Z,12.03
2023-02-12T10:06:30.066Z,13.60
2023-02-12T10:12:15.012Z,16.87
2023-02-12T10:15:14.207Z,15.17
2023-02-12T10:19:36.808Z,12.70
2023-02-12T10:22:55.840Z,13.70
2023-02-12T10:27:20.291Z,13.67
2023-02-12T10:29:49.069Z,16.80
2023-02-12T10:32:32.734Z,11.50
2023-02-12T10:34:59.927Z,10.87
2023-02-12T10:37:56.886Z,13.17
2023-02-12T10:40:29.274Z,5.87
2023-02-12T10:42:57.596Z,4.70
2023-02-12T10:45:39.018Z,5.57
2023-02-12T10:48:21.480Z,6.53
2023-02-12T10:52:44.404Z,6.63
2023-02-12T10:55:30.492Z,6.63
2023-02-12T10:57:59.553Z,6.07
2023-02-12T11:00:38.322Z,6.70
2023-02-12T11:03:33.591Z,13.03
2023-02-12T11:06:16.900Z,5.53
2023-02-12T11:08:44.682Z,4.97
2023-02-12T11:11:18.792Z,6.57
2023-02-12T11:13:59.260Z,5.00
2023-02-12T11:16:44.714Z,4.30
2023-02-12T11:19:29.389Z,4.37
2023-02-12T11:22:13.764Z,3.37
2023-02-12T11:24:40.335Z,4.63
2023-02-12T11:29:48.720Z,3.83
2023-02-12T11:32:19.025Z,3.67
2023-02-12T11:35:27.609Z,4.03
2023-02-12T11:37:57.929Z,4.23
2023-02-12T11:40:33.632Z,3.17
2023-02-12T11:43:14.069Z,2.53
2023-02-12T11:46:01.425Z,3.93
2023-02-12T11:48:46.949Z,2.53
2023-02-12T11:51:24.453Z,2.83
2023-02-12T11:53:55.635Z,2.53
2023-02-12T11:56:22.352Z,2.33
2023-02-12T11:58:50.949Z,4.37
2023-02-12T12:01:38.594Z,1.67
2023-02-12T12:04:14.686Z,3.10
2023-02-12T12:06:54.013Z,2.40
2023-02-12T12:09:49.598Z,1.53
2023-02-12T12:12:37.000Z,2.23
2023-02-12T12:15:43.935Z,2.40
2023-02-12T12:19:51.925Z,1.50
2023-02-12T12:23:12.483Z,0.60
2023-02-12T12:26:03.817Z,0.60
2023-02-12T12:28:51.732Z,0.70
2023-02-12T12:32:02.752Z,0.70
2023-02-12T12:34:29.488Z,0.67
2023-02-12T12:37:57.312Z,0.47
2023-02-12T12:41:19.652Z,0.80
2023-02-12T12:44:42.401Z,0.77
2023-02-12T12:49:58.875Z,1.07
2023-02-12T12:53:18.080Z,0.30
2023-02-12T12:56:48.740Z,1.07
2023-02-12T13:01:35.533Z,0.40
2023-02-12T13:07:48.285Z,1.43
2023-02-12T13:10:55.620Z,0.40
2023-02-12T13:14:12.862Z,0.40
2023-02-12T13:16:48.948Z,0.63
2023-02-12T13:20:55.655Z,1.60
2023-02-12T13:24:16.765Z,0.43
2023-02-12T13:26:57.031Z,0.50
2023-02-12T13:29:36.517Z,0.33
2023-02-12T13:32:21.688Z,0.50
2023-02-12T13:34:50.051Z,1.97
2023-02-12T13:37:45.855Z,0.50
2023-02-12T13:40:22.614Z,0.40
2023-02-12T13:46:14.600Z,0.50
2023-02-12T13:50:34.033Z,0.50
2023-02-12T13:54:59.284Z,1.13
2023-02-12T13:57:25.760Z,0.30
2023-02-12T13:59:54.570Z,0.57
2023-02-12T14:02:54.656Z,0.60
2023-02-12T14:05:29.276Z,1.07
2023-02-12T14:08:05.509Z,1.13
2023-02-12T14:10:41.730Z,0.40
2023-02-12T14:16:18.520Z,0.67
2023-02-12T14:18:45.018Z,0.40
2023-02-12T14:21:56.844Z,0.40
2023-02-12T14:24:53.303Z,4.07
2023-02-12T14:27:54.042Z,2.53
2023-02-12T14:30:41.787Z,2.40
2023-02-12T14:33:24.383Z,4.40
2023-02-12T14:36:48.303Z,4.60
2023-02-12T14:39:47.823Z,2.50
2023-02-12T14:42:43.171Z,2.10
2023-02-12T14:45:35.272Z,3.10
2023-02-12T14:48:04.486Z,3.23
2023-02-12T14:50:49.693Z,1.67
2023-02-12T14:53:38.587Z,1.73
2023-02-12T14:56:08.620Z,2.73
2023-02-12T14:58:36.838Z,4.13
2023-02-12T15:01:05.797Z,8.70
2023-02-12T15:03:50.318Z,2.13
2023-02-12T15:06:27.406Z,1.13
2023-02-12T15:09:02.353Z,1.97
2023-02-12T15:11:46.790Z,4.07
2023-02-12T15:14:30.272Z,5.17
2023-02-12T15:17:34.249Z,2.63
2023-02-12T15:20:37.677Z,4.77
2023-02-12T15:23:44.840Z,2.03
2023-02-12T15:26:30.958Z,2.10
2023-02-12T15:28:57.562Z,1.40
2023-02-12T15:31:29.607Z,3.30
2023-02-12T15:34:00.573Z,1.40
2023-02-12T15:36:32.598Z,1.83
2023-02-12T15:39:08.387Z,2.83
2023-02-12T15:41:39.642Z,1.27
2023-02-12T15:45:58.342Z,1.40
2023-02-12T15:48:32.465Z,1.23
2023-02-12T15:51:25.107Z,1.40
2023-02-12T15:53:52.240Z,4.77
2023-02-12T15:56:24.114Z,6.73
2023-02-12T15:58:57.240Z,3.10
2023-02-12T16:01:27.237Z,10.50
2023-02-12T16:04:00.902Z,8.20
2023-02-12T16:06:31.996Z,4.47
2023-02-12T16:09:07.568Z,2.83
2023-02-12T16:11:36.123Z,3.67
2023-02-12T16:14:18.355Z,6.73
2023-02-12T16:16:52.123Z,4.70
2023-02-12T16:19:39.456Z,4.20
2023-02-12T16:22:14.308Z,21.07
2023-02-12T16:24:49.548Z,20.43
2023-02-12T16:27:23.561Z,25.33
2023-02-12T16:30:00.885Z,29.23
2023-02-12T16:32:40.964Z,29.97
2023-02-12T16:35:32.378Z,34.17
2023-02-12T16:38:47.768Z,31.90
2023-02-12T16:41:29.913Z,31.43
2023-02-12T16:44:32.275Z,36.13
2023-02-12T16:47:01.215Z,31.27
2023-02-12T16:49:27.736Z,42.43
2023-02-12T16:52:30.657Z,32.23
2023-02-12T16:54:57.133Z,25.33
2023-02-12T16:57:23.626Z,27.17
2023-02-12T16:59:50.104Z,27.37
2023-02-12T17:02:16.575Z,36.40
2023-02-12T17:04:43.094Z,25.33
2023-02-12T17:07:22.605Z,21.47
2023-02-12T17:09:49.151Z,25.70
2023-02-12T17:12:16.538Z,20.57
2023-02-12T17:14:42.982Z,27.57
2023-02-12T17:17:09.582Z,20.90
2023-02-12T17:19:36.194Z,23.17
2023-02-12T17:22:05.151Z,19.70
2023-02-12T17:24:35.858Z,16.23
2023-02-12T17:27:02.749Z,18.83
2023-02-12T17:29:29.941Z,27.53
2023-02-12T17:31:57.199Z,22.10
2023-02-12T17:34:24.761Z,19.07
2023-02-12T17:36:51.972Z,24.07
2023-02-12T17:39:19.521Z,22.37
2023-02-12T17:41:46.839Z,11.73
2023-02-12T17:44:14.705Z,19.83
2023-02-12T17:46:41.989Z,17.67
2023-02-12T17:49:08.495Z,17.87
2023-02-12T17:51:34.976Z,20.77
2023-02-12T17:54:01.656Z,16.67
2023-02-12T17:56:28.152Z,19.87
2023-02-12T17:58:54.694Z,23.90
2023-02-12T18:01:23.125Z,16.03
2023-02-12T18:03:50.810Z,17.03
2023-02-12T18:06:27.657Z,14.00
2023-02-12T18:08:56.444Z,15.30
2023-02-12T18:11:23.312Z,13.17
2023-02-12T18:13:55.032Z,15.43
2023-02-12T18:16:23.999Z,12.10
2023-02-12T18:18:50.765Z,11.23
2023-02-12T18:21:17.480Z,11.77
2023-02-12T18:23:44.439Z,18.57
2023-02-12T18:26:14.525Z,25.30
2023-02-12T18:28:41.813Z,13.13
2023-02-12T18:31:09.823Z,18.53
2023-02-12T18:33:37.617Z,12.17
2023-02-12T18:36:16.272Z,12.07
2023-02-12T18:38:46.365Z,17.57
2023-02-12T18:41:23.539Z,11.83
2023-02-12T18:43:50.649Z,18.70
2023-02-12T18:46:21.420Z,12.83
2023-02-12T18:48:48.518Z,13.93
2023-02-12T18:51:20.277Z,16.73
2023-02-12T18:53:46.986Z,13.70
2023-02-12T18:56:13.712Z,12.33
2023-02-12T18:58:40.262Z,10.93
2023-02-12T19:01:18.978Z,12.63
2023-02-12T19:03:50.172Z,13.93
2023-02-12T19:06:16.669Z,10.30
2023-02-12T19:08:43.127Z,10.53
2023-02-12T19:11:11.337Z,8.93
2023-02-12T19:13:38.483Z,12.27
2023-02-12T19:16:12.849Z,7.33
2023-02-12T19:18:39.970Z,10.10
2023-02-12T19:21:13.245Z,9.87
2023-02-12T19:23:39.971Z,14.07
2023-02-12T19:26:12.027Z,14.87
2023-02-12T19:28:39.308Z,10.93
2023-02-12T19:31:29.330Z,11.37
2023-02-12T19:34:15.225Z,24.60
2023-02-12T19:36:43.582Z,18.87
2023-02-12T19:39:13.996Z,13.47
2023-02-12T19:41:41.251Z,17.30
2023-02-12T19:44:17.929Z,21.00
2023-02-12T19:46:46.166Z,12.50
2023-02-12T19:49:20.432Z,16.20
2023-02-12T19:51:48.268Z,16.47
2023-02-12T19:54:17.269Z,15.70
2023-02-12T19:56:44.531Z,14.47
2023-02-12T19:59:16.570Z,13.43
2023-02-12T20:01:43.927Z,18.43
2023-02-12T20:04:16.802Z,16.10
2023-02-12T20:06:45.153Z,13.73
2023-02-12T20:09:13.399Z,14.90
2023-02-12T20:11:40.338Z,13.43
2023-02-12T20:14:10.277Z,13.00
2023-02-12T20:16:38.440Z,16.77
2023-02-12T20:19:16.242Z,13.80
2023-02-12T20:21:43.190Z,14.90
2023-02-12T20:24:09.887Z,14.07
2023-02-12T20:26:37.215Z,13.43
2023-02-12T20:29:05.376Z,17.07
2023-02-12T20:31:35.216Z,20.17
2023-02-12T20:34:06.152Z,15.67
2023-02-12T20:36:36.188Z,13.50
2023-02-12T20:39:06.319Z,12.03
2023-02-12T20:41:36.208Z,15.60
2023-02-12T20:44:05.854Z,12.80
2023-02-12T20:46:32.451Z,11.30
2023-02-12T20:48:58.924Z,13.83
2023-02-12T20:51:27.734Z,15.50
2023-02-12T20:53:54.940Z,15.07
2023-02-12T20:56:27.443Z,14.17
2023-02-12T20:58:54.661Z,14.87
2023-02-12T21:01:33.739Z,13.90
2023-02-12T21:04:09.935Z,15.77
2023-02-12T21:06:39.302Z,16.53
2023-02-12T21:09:08.991Z,15.67
2023-02-12T21:11:36.798Z,14.40
2023-02-12T21:14:20.811Z,13.93
2023-02-12T21:16:48.201Z,17.00
2023-02-12T21:19:14.653Z,12.97
2023-02-12T21:21:46.152Z,12.50
2023-02-12T21:24:17.396Z,14.33
2023-02-12T21:26:44.041Z,13.70
2023-02-12T21:29:10.761Z,21.17
2023-02-12T21:31:41.532Z,16.37
2023-02-12T21:34:12.889Z,14.97
2023-02-12T21:36:41.733Z,14.60
2023-02-12T21:39:13.527Z,15.03
2023-02-12T21:41:41.960Z,14.50
2023-02-12T21:44:16.499Z,15.17
2023-02-12T21:46:43.707Z,15.70
2023-02-12T21:49:13.237Z,13.57
2023-02-12T21:51:44.526Z,15.30
2023-02-12T21:54:15.080Z,13.67
2023-02-12T21:56:44.596Z,14.80
2023-02-12T21:59:12.271Z,13.57
2023-02-12T22:01:49.813Z,13.60
2023-02-12T22:04:17.872Z,15.93
2023-02-12T22:06:50.005Z,13.80
2023-02-12T22:09:20.615Z,15.20
2023-02-12T22:11:47.195Z,16.40
2023-02-12T22:14:16.971Z,19.30
2023-02-12T22:16:44.241Z,19.90
2023-02-12T22:19:10.806Z,13.20
2023-02-12T22:21:40.434Z,16.93
2023-02-12T22:24:11.977Z,16.73
2023-02-12T22:26:38.491Z,17.87
2023-02-12T22:29:09.785Z,15.57
2023-02-12T22:31:40.132Z,18.47
2023-02-12T22:34:12.735Z,18.07
2023-02-12T22:36:40.693Z,13.07
2023-02-12T22:39:07.862Z,13.37
2023-02-12T22:41:34.354Z,13.77
2023-02-12T22:44:04.365Z,16.83
2023-02-12T22:46:31.487Z,10.80
2023-02-12T22:48:57.958Z,15.50
2023-02-12T22:51:30.413Z,11.57
2023-02-12T22:53:56.908Z,15.93
2023-02-12T22:56:24.467Z,11.60
2023-02-12T22:59:00.423Z,15.87
2023-02-12T23:01:29.085Z,13.83
2023-02-12T23:03:55.996Z,15.30
2023-02-12T23:06:26.986Z,13.53
2023-02-12T23:08:58.137Z,13.57
2023-02-12T23:11:27.498Z,16.40
2023-02-12T23:13:54.759Z,17.10
2023-02-12T23:16:21.708Z,18.53
2023-02-12T23:18:48.225Z,10.37
2023-02-12T23:21:14.797Z,10.97
2023-02-12T23:23:41.268Z,15.40
2023-02-12T23:26:07.745Z,15.57
2023-02-12T23:28:34.269Z,13.87
2023-02-12T23:31:01.398Z,14.60
2023-02-12T23:33:28.121Z,12.20
2023-02-12T23:35:54.576Z,9.77
2023-02-12T23:38:21.040Z,11.80
2023-02-12T23:40:47.938Z,8.53
2023-02-12T23:43:14.485Z,15.50
2023-02-12T23:45:43.881Z,10.67
2023-02-12T23:48:11.108Z,20.53
2023-02-12T23:50:37.892Z,12.50
2023-02-12T23:53:04.530Z,13.53
2023-02-12T23:55:30.983Z,13.80
2023-02-12T23:57:57.468Z,11.40
